HOURLY OBS INDEX

059

Mid North Coast

COFFS HARBOUR AIRPORT

Site: 059151
Alt: 3.5m
km of


  Time     Wind        Temp  DP   Baro     Rain since   Rain past  Vis(m), Cloud(base in m), Weather
  local        km/h                         9am  last   hr   10m    
Sun 11:00   NE 30/ 39  26.8 18.6  1007.5    0.0   0.0   0.0   0.0   10000 
Sun 11:30   NE 28/ 37  27.5 19.8  1007.0    0.0   0.0   0.0   0.0   10000 
Sun 12:00   NE 32/ 37  28.6 19.2  1006.2    0.0   0.0   0.0   0.0   10000 
Sun 12:30   NE 28/ 35  30.6 19.3  1005.8    0.0   0.0   0.0   0.0   10000 
Sun 13:00   NE 33/ 43  29.6 18.7  1005.2    0.0   0.0   0.0   0.0   10000 
Sun 13:30   NE 35/ 52  29.2 19.2  1004.8    0.0   0.0   0.0   0.0   10000 
Sun 14:00  NNE 39/ 50  29.7 19.1  1004.2    0.0   0.0   0.0   0.0   10000 
Sun 14:30   NE 39/ 50  28.9 18.7  1003.7    0.0   0.0   0.0   0.0   10000 
Sun 15:00   NE 39/ 52  29.1 18.5  1003.2    0.0   0.0   0.0   0.0   10000 
Sun 15:30  NNE 37/ 52  28.8 18.6  1002.7    0.0   0.0   0.0   0.0   10000 
Sun 16:00  NNE 37/ 54  30.5 17.9  1002.3    0.0   0.0   0.0   0.0   10000 
Sun 16:30   NE 35/ 48  27.9 18.0  1002.2    0.0   0.0   0.0   0.0   10000 

KEMPSEY AIRPORT AWS

Site: 059007
Alt: 13.0m
6km WNW of KEMPSEY


  Time     Wind        Temp  DP   Baro     Rain since   Rain past  Vis(m), Cloud(base in m), Weather
  local        km/h                         9am  last   hr   10m    
Sun 11:00   NW 15/ 20  35.9 13.4  1005.3    0.0   0.0   0.0   0.0   ----- 
Sun 11:30  NNW 19/ 32  36.7 12.8  1004.9    0.0   0.0   0.0   0.0   ----- 
Sun 12:00  NNW 20/ 30  37.5 13.5  1004.4    0.0   0.0   0.0   0.0   ----- 
Sun 12:30  WNW 17/ 20  38.2 12.7  1004.1    0.0   0.0   0.0   0.0   ----- 
Sun 13:00   NW 19/ 30  38.8 14.6  1003.5    0.0   0.0   0.0   0.0   ----- 
Sun 13:30  WNW 20/ 30  39.5 11.6  1003.0    0.0   0.0   0.0   0.0   ----- 
Sun 14:00  NNW 15/ 26  39.3 12.2  1002.6    0.0   0.0   0.0   0.0   ----- 
Sun 14:30  ESE 11/ 19  36.5 19.4  1002.3    0.0   0.0   0.0   0.0   ----- 
Sun 15:00  SSW 11/ 24  37.0 18.1  1002.1    0.0   0.0   0.0   0.0   ----- 
Sun 15:30  ESE 13/ 19  34.8 21.1  1001.7    0.0   0.0   0.0   0.0   ----- 
Sun 16:00  ESE 24/ 30  33.0 20.9  1001.5    0.0   0.0   0.0   0.0   ----- 
Sun 16:30    E 22/ 32  31.6 20.2  1001.5    0.0   0.0   0.0   0.0   -----